sensor_id;sensor_type;location;lat;lon;timestamp;temperature;humidity
4701;DHT22;8724;51.272;6.554;2022-12-20T00:01:30;9.10;99.90
4701;DHT22;8724;51.272;6.554;2022-12-20T00:04:01;9.30;99.90
4701;DHT22;8724;51.272;6.554;2022-12-20T00:06:32;9.20;99.90
4701;DHT22;8724;51.272;6.554;2022-12-20T00:09:02;9.20;99.90
4701;DHT22;8724;51.272;6.554;2022-12-20T00:11:31;9.20;99.90
4701;DHT22;8724;51.272;6.554;2022-12-20T00:14:00;9.20;99.90
4701;DHT22;8724;51.272;6.554;2022-12-20T00:16:28;9.20;99.90
4701;DHT22;8724;51.272;6.554;2022-12-20T00:19:00;9.20;99.90
4701;DHT22;8724;51.272;6.554;2022-12-20T00:21:31;9.20;99.90
4701;DHT22;8724;51.272;6.554;2022-12-20T00:23:59;9.20;99.90
4701;DHT22;8724;51.272;6.554;2022-12-20T00:26:29;9.20;99.90
4701;DHT22;8724;51.272;6.554;2022-12-20T00:28:58;9.20;99.90
4701;DHT22;8724;51.272;6.554;2022-12-20T00:31:28;9.20;99.90
4701;DHT22;8724;51.272;6.554;2022-12-20T00:33:58;9.20;99.90
4701;DHT22;8724;51.272;6.554;2022-12-20T00:36:30;9.20;99.90
4701;DHT22;8724;51.272;6.554;2022-12-20T00:38:59;9.20;99.90
4701;DHT22;8724;51.272;6.554;2022-12-20T00:41:30;9.20;99.90
4701;DHT22;8724;51.272;6.554;2022-12-20T00:43:58;9.50;99.90
4701;DHT22;8724;51.272;6.554;2022-12-20T00:46:27;9.20;99.90
4701;DHT22;8724;51.272;6.554;2022-12-20T00:48:55;9.20;99.90
4701;DHT22;8724;51.272;6.554;2022-12-20T00:51:26;9.20;99.90
4701;DHT22;8724;51.272;6.554;2022-12-20T00:53:55;9.20;99.90
4701;DHT22;8724;51.272;6.554;2022-12-20T00:56:24;9.20;99.90
4701;DHT22;8724;51.272;6.554;2022-12-20T00:58:57;9.20;99.90
4701;DHT22;8724;51.272;6.554;2022-12-20T01:01:28;9.30;99.90
4701;DHT22;8724;51.272;6.554;2022-12-20T01:03:57;9.40;99.90
4701;DHT22;8724;51.272;6.554;2022-12-20T01:06:26;9.30;99.90
4701;DHT22;8724;51.272;6.554;2022-12-20T01:08:57;9.30;99.90
4701;DHT22;8724;51.272;6.554;2022-12-20T01:11:26;9.30;99.90
4701;DHT22;8724;51.272;6.554;2022-12-20T01:13:57;9.30;99.90
4701;DHT22;8724;51.272;6.554;2022-12-20T01:16:28;9.30;99.90
4701;DHT22;8724;51.272;6.554;2022-12-20T01:18:57;9.30;99.90
4701;DHT22;8724;51.272;6.554;2022-12-20T01:21:26;9.40;99.90
4701;DHT22;8724;51.272;6.554;2022-12-20T01:23:56;9.30;99.90
4701;DHT22;8724;51.272;6.554;2022-12-20T01:26:26;9.30;99.90
4701;DHT22;8724;51.272;6.554;2022-12-20T01:28:56;9.30;99.90
4701;DHT22;8724;51.272;6.554;2022-12-20T01:31:26;9.30;99.90
4701;DHT22;8724;51.272;6.554;2022-12-20T01:33:54;9.30;99.90
4701;DHT22;8724;51.272;6.554;2022-12-20T01:36:26;9.40;99.90
4701;DHT22;8724;51.272;6.554;2022-12-20T01:38:57;9.30;99.90
4701;DHT22;8724;51.272;6.554;2022-12-20T01:41:27;9.40;99.90
4701;DHT22;8724;51.272;6.554;2022-12-20T01:43:58;9.40;99.90
4701;DHT22;8724;51.272;6.554;2022-12-20T01:46:30;9.40;99.90
4701;DHT22;8724;51.272;6.554;2022-12-20T01:49:01;9.40;99.90
4701;DHT22;8724;51.272;6.554;2022-12-20T01:51:33;9.30;99.90
4701;DHT22;8724;51.272;6.554;2022-12-20T01:54:07;9.40;99.90
4701;DHT22;8724;51.272;6.554;2022-12-20T01:56:37;9.40;99.90
4701;DHT22;8724;51.272;6.554;2022-12-20T01:59:07;9.40;99.90
4701;DHT22;8724;51.272;6.554;2022-12-20T02:01:36;9.40;99.90
4701;DHT22;8724;51.272;6.554;2022-12-20T02:04:04;9.40;99.90
4701;DHT22;8724;51.272;6.554;2022-12-20T02:06:32;9.40;99.90
4701;DHT22;8724;51.272;6.554;2022-12-20T02:09:02;9.40;99.90
4701;DHT22;8724;51.272;6.554;2022-12-20T02:11:54;9.40;99.90
4701;DHT22;8724;51.272;6.554;2022-12-20T02:14:35;9.40;99.90
4701;DHT22;8724;51.272;6.554;2022-12-20T02:17:11;9.50;99.90
4701;DHT22;8724;51.272;6.554;2022-12-20T02:20:21;9.50;99.90
4701;DHT22;8724;51.272;6.554;2022-12-20T02:23:15;9.50;99.90
4701;DHT22;8724;51.272;6.554;2022-12-20T02:25:52;9.50;99.90
4701;DHT22;8724;51.272;6.554;2022-12-20T02:28:45;9.50;99.90
4701;DHT22;8724;51.272;6.554;2022-12-20T02:31:24;9.50;99.90
4701;DHT22;8724;51.272;6.554;2022-12-20T02:33:55;9.50;99.90
4701;DHT22;8724;51.272;6.554;2022-12-20T02:36:24;9.50;99.90
4701;DHT22;8724;51.272;6.554;2022-12-20T02:38:53;9.60;99.90
4701;DHT22;8724;51.272;6.554;2022-12-20T02:41:25;9.60;99.90
4701;DHT22;8724;51.272;6.554;2022-12-20T02:43:56;9.60;99.90
4701;DHT22;8724;51.272;6.554;2022-12-20T02:46:45;9.60;99.90
4701;DHT22;8724;51.272;6.554;2022-12-20T02:49:17;9.60;99.90
4701;DHT22;8724;51.272;6.554;2022-12-20T02:51:48;9.60;99.90
4701;DHT22;8724;51.272;6.554;2022-12-20T02:54:18;9.60;99.90
4701;DHT22;8724;51.272;6.554;2022-12-20T02:56:53;9.60;99.90
4701;DHT22;8724;51.272;6.554;2022-12-20T02:59:27;9.60;99.90
4701;DHT22;8724;51.272;6.554;2022-12-20T03:01:58;9.70;99.90
4701;DHT22;8724;51.272;6.554;2022-12-20T03:04:29;9.70;99.90
4701;DHT22;8724;51.272;6.554;2022-12-20T03:07:00;9.70;99.90
4701;DHT22;8724;51.272;6.554;2022-12-20T03:09:30;9.70;99.90
4701;DHT22;8724;51.272;6.554;2022-12-20T03:11:59;9.70;99.90
4701;DHT22;8724;51.272;6.554;2022-12-20T03:14:29;9.70;99.90
4701;DHT22;8724;51.272;6.554;2022-12-20T03:17:01;9.70;99.90
4701;DHT22;8724;51.272;6.554;2022-12-20T03:19:29;9.70;99.90
4701;DHT22;8724;51.272;6.554;2022-12-20T03:21:58;9.70;99.90
4701;DHT22;8724;51.272;6.554;2022-12-20T03:24:26;9.70;99.90
4701;DHT22;8724;51.272;6.554;2022-12-20T03:26:54;9.80;99.90
4701;DHT22;8724;51.272;6.554;2022-12-20T03:29:24;9.80;99.90
4701;DHT22;8724;51.272;6.554;2022-12-20T03:31:52;9.80;99.90
4701;DHT22;8724;51.272;6.554;2022-12-20T03:34:22;9.80;99.90
4701;DHT22;8724;51.272;6.554;2022-12-20T03:36:50;9.80;99.90
4701;DHT22;8724;51.272;6.554;2022-12-20T03:39:18;9.80;99.90
4701;DHT22;8724;51.272;6.554;2022-12-20T03:41:50;9.80;99.90
4701;DHT22;8724;51.272;6.554;2022-12-20T03:44:18;9.80;99.90
4701;DHT22;8724;51.272;6.554;2022-12-20T03:46:48;9.80;99.90
4701;DHT22;8724;51.272;6.554;2022-12-20T03:49:16;9.80;99.90
4701;DHT22;8724;51.272;6.554;2022-12-20T03:51:50;9.80;99.90
4701;DHT22;8724;51.272;6.554;2022-12-20T03:54:18;9.80;99.90
4701;DHT22;8724;51.272;6.554;2022-12-20T03:57:00;9.80;99.90
4701;DHT22;8724;51.272;6.554;2022-12-20T03:59:29;9.90;99.90
4701;DHT22;8724;51.272;6.554;2022-12-20T04:01:58;9.80;99.90
4701;DHT22;8724;51.272;6.554;2022-12-20T04:04:29;9.80;99.90
4701;DHT22;8724;51.272;6.554;2022-12-20T04:06:59;9.80;99.90
4701;DHT22;8724;51.272;6.554;2022-12-20T04:10:07;9.80;99.90
4701;DHT22;8724;51.272;6.554;2022-12-20T04:12:36;9.80;99.90
4701;DHT22;8724;51.272;6.554;2022-12-20T04:15:09;9.80;99.90
4701;DHT22;8724;51.272;6.554;2022-12-20T04:17:41;9.80;99.90
4701;DHT22;8724;51.272;6.554;2022-12-20T04:20:12;9.80;99.90
4701;DHT22;8724;51.272;6.554;2022-12-20T04:22:55;9.80;99.90
4701;DHT22;8724;51.272;6.554;2022-12-20T04:25:23;9.80;99.90
4701;DHT22;8724;51.272;6.554;2022-12-20T04:27:54;9.80;99.90
4701;DHT22;8724;51.272;6.554;2022-12-20T04:30:22;9.80;99.90
4701;DHT22;8724;51.272;6.554;2022-12-20T04:32:51;9.80;99.90
4701;DHT22;8724;51.272;6.554;2022-12-20T04:35:22;9.80;99.90
4701;DHT22;8724;51.272;6.554;2022-12-20T04:37:50;9.80;99.90
4701;DHT22;8724;51.272;6.554;2022-12-20T04:40:20;9.70;99.90
4701;DHT22;8724;51.272;6.554;2022-12-20T04:42:52;9.80;99.90
4701;DHT22;8724;51.272;6.554;2022-12-20T04:45:21;9.80;99.90
4701;DHT22;8724;51.272;6.554;2022-12-20T04:47:53;9.80;99.90
4701;DHT22;8724;51.272;6.554;2022-12-20T04:50:31;9.80;99.90
4701;DHT22;8724;51.272;6.554;2022-12-20T04:53:00;9.80;99.90
4701;DHT22;8724;51.272;6.554;2022-12-20T04:55:47;9.80;99.90
4701;DHT22;8724;51.272;6.554;2022-12-20T04:58:16;9.80;99.90
4701;DHT22;8724;51.272;6.554;2022-12-20T05:00:45;9.80;99.90
4701;DHT22;8724;51.272;6.554;2022-12-20T05:03:32;9.80;99.90
4701;DHT22;8724;51.272;6.554;2022-12-20T05:06:03;9.80;99.90
4701;DHT22;8724;51.272;6.554;2022-12-20T05:08:36;9.80;99.90
4701;DHT22;8724;51.272;6.554;2022-12-20T05:11:09;9.80;99.90
4701;DHT22;8724;51.272;6.554;2022-12-20T05:13:40;9.80;99.90
4701;DHT22;8724;51.272;6.554;2022-12-20T05:16:15;9.80;99.90
4701;DHT22;8724;51.272;6.554;2022-12-20T05:18:45;9.80;99.90
4701;DHT22;8724;51.272;6.554;2022-12-20T05:21:16;9.80;99.90
4701;DHT22;8724;51.272;6.554;2022-12-20T05:24:07;9.80;99.90
4701;DHT22;8724;51.272;6.554;2022-12-20T05:27:19;9.80;99.90
4701;DHT22;8724;51.272;6.554;2022-12-20T05:29:51;9.90;99.90
4701;DHT22;8724;51.272;6.554;2022-12-20T05:32:20;9.80;99.90
4701;DHT22;8724;51.272;6.554;2022-12-20T05:34:52;9.90;99.90
4701;DHT22;8724;51.272;6.554;2022-12-20T05:37:22;9.90;99.90
4701;DHT22;8724;51.272;6.554;2022-12-20T05:39:51;9.90;99.90
4701;DHT22;8724;51.272;6.554;2022-12-20T05:42:23;9.80;99.90
4701;DHT22;8724;51.272;6.554;2022-12-20T05:44:52;9.90;99.90
4701;DHT22;8724;51.272;6.554;2022-12-20T05:47:21;9.90;99.90
4701;DHT22;8724;51.272;6.554;2022-12-20T05:50:01;9.90;99.90
4701;DHT22;8724;51.272;6.554;2022-12-20T05:52:35;9.90;99.90
4701;DHT22;8724;51.272;6.554;2022-12-20T05:55:04;9.90;99.90
4701;DHT22;8724;51.272;6.554;2022-12-20T05:57:36;9.90;99.90
4701;DHT22;8724;51.272;6.554;2022-12-20T06:00:05;9.90;99.90
4701;DHT22;8724;51.272;6.554;2022-12-20T06:02:42;9.90;99.90
4701;DHT22;8724;51.272;6.554;2022-12-20T06:05:11;9.90;99.90
4701;DHT22;8724;51.272;6.554;2022-12-20T06:07:39;10.00;99.90
4701;DHT22;8724;51.272;6.554;2022-12-20T06:10:09;9.90;99.90
4701;DHT22;8724;51.272;6.554;2022-12-20T06:12:49;9.90;99.90
4701;DHT22;8724;51.272;6.554;2022-12-20T06:15:17;10.00;99.90
4701;DHT22;8724;51.272;6.554;2022-12-20T06:17:47;10.00;99.90
4701;DHT22;8724;51.272;6.554;2022-12-20T06:20:15;9.90;99.90
4701;DHT22;8724;51.272;6.554;2022-12-20T06:22:47;10.00;99.90
4701;DHT22;8724;51.272;6.554;2022-12-20T06:25:15;10.00;99.90
4701;DHT22;8724;51.272;6.554;2022-12-20T06:27:45;10.00;99.90
4701;DHT22;8724;51.272;6.554;2022-12-20T06:30:17;10.00;99.90
4701;DHT22;8724;51.272;6.554;2022-12-20T06:33:14;10.00;99.90
4701;DHT22;8724;51.272;6.554;2022-12-20T06:35:42;10.00;99.90
4701;DHT22;8724;51.272;6.554;2022-12-20T06:38:11;10.00;99.90
4701;DHT22;8724;51.272;6.554;2022-12-20T06:40:39;10.00;99.90
4701;DHT22;8724;51.272;6.554;2022-12-20T06:43:07;10.00;99.90
4701;DHT22;8724;51.272;6.554;2022-12-20T06:45:37;10.00;99.90
4701;DHT22;8724;51.272;6.554;2022-12-20T06:48:09;10.00;99.90
4701;DHT22;8724;51.272;6.554;2022-12-20T06:50:39;10.00;99.90
4701;DHT22;8724;51.272;6.554;2022-12-20T06:53:08;10.00;99.90
4701;DHT22;8724;51.272;6.554;2022-12-20T06:55:36;10.00;99.90
4701;DHT22;8724;51.272;6.554;2022-12-20T06:58:06;10.00;99.90
4701;DHT22;8724;51.272;6.554;2022-12-20T07:00:37;10.00;99.90
4701;DHT22;8724;51.272;6.554;2022-12-20T07:03:06;10.00;99.90
4701;DHT22;8724;51.272;6.554;2022-12-20T07:05:34;10.00;99.90
4701;DHT22;8724;51.272;6.554;2022-12-20T07:08:03;10.00;99.90
4701;DHT22;8724;51.272;6.554;2022-12-20T07:10:33;10.10;99.90
4701;DHT22;8724;51.272;6.554;2022-12-20T07:13:01;10.10;99.90
4701;DHT22;8724;51.272;6.554;2022-12-20T07:15:30;10.00;99.90
4701;DHT22;8724;51.272;6.554;2022-12-20T07:17:59;10.10;99.90
4701;DHT22;8724;51.272;6.554;2022-12-20T07:20:29;10.10;99.90
4701;DHT22;8724;51.272;6.554;2022-12-20T07:22:58;10.10;99.90
4701;DHT22;8724;51.272;6.554;2022-12-20T07:25:26;10.10;99.90
4701;DHT22;8724;51.272;6.554;2022-12-20T07:27:55;10.10;99.90
4701;DHT22;8724;51.272;6.554;2022-12-20T07:30:23;10.10;99.90
4701;DHT22;8724;51.272;6.554;2022-12-20T07:32:52;10.30;99.90
4701;DHT22;8724;51.272;6.554;2022-12-20T07:35:22;10.10;99.90
4701;DHT22;8724;51.272;6.554;2022-12-20T07:37:51;10.10;99.90
4701;DHT22;8724;51.272;6.554;2022-12-20T07:40:20;10.10;99.90
4701;DHT22;8724;51.272;6.554;2022-12-20T07:42:48;10.10;99.90
4701;DHT22;8724;51.272;6.554;2022-12-20T07:45:17;10.10;99.90
4701;DHT22;8724;51.272;6.554;2022-12-20T07:47:45;10.20;99.90
4701;DHT22;8724;51.272;6.554;2022-12-20T07:50:14;10.10;99.90
4701;DHT22;8724;51.272;6.554;2022-12-20T07:52:46;10.10;99.90
4701;DHT22;8724;51.272;6.554;2022-12-20T07:55:16;10.10;99.90
4701;DHT22;8724;51.272;6.554;2022-12-20T07:57:47;10.10;99.90
4701;DHT22;8724;51.272;6.554;2022-12-20T08:00:16;10.10;99.90
4701;DHT22;8724;51.272;6.554;2022-12-20T08:02:48;10.10;99.90
4701;DHT22;8724;51.272;6.554;2022-12-20T08:05:20;10.20;99.90
4701;DHT22;8724;51.272;6.554;2022-12-20T08:07:52;10.10;99.90
4701;DHT22;8724;51.272;6.554;2022-12-20T08:10:26;10.20;99.90
4701;DHT22;8724;51.272;6.554;2022-12-20T08:12:55;10.10;99.90
4701;DHT22;8724;51.272;6.554;2022-12-20T08:15:24;10.20;99.90
4701;DHT22;8724;51.272;6.554;2022-12-20T08:17:52;10.20;99.90
4701;DHT22;8724;51.272;6.554;2022-12-20T08:20:20;10.20;99.90
4701;DHT22;8724;51.272;6.554;2022-12-20T08:22:50;10.20;99.90
4701;DHT22;8724;51.272;6.554;2022-12-20T08:25:19;10.20;99.90
4701;DHT22;8724;51.272;6.554;2022-12-20T08:27:48;10.20;99.90
4701;DHT22;8724;51.272;6.554;2022-12-20T08:30:16;10.20;99.90
4701;DHT22;8724;51.272;6.554;2022-12-20T08:32:45;10.20;99.90
4701;DHT22;8724;51.272;6.554;2022-12-20T08:35:13;10.20;99.90
4701;DHT22;8724;51.272;6.554;2022-12-20T08:37:41;10.20;99.90
4701;DHT22;8724;51.272;6.554;2022-12-20T08:40:12;10.20;99.90
4701;DHT22;8724;51.272;6.554;2022-12-20T08:42:40;10.30;99.90
4701;DHT22;8724;51.272;6.554;2022-12-20T08:45:09;10.30;99.90
4701;DHT22;8724;51.272;6.554;2022-12-20T08:47:38;10.30;99.90
4701;DHT22;8724;51.272;6.554;2022-12-20T08:50:07;10.30;99.90
4701;DHT22;8724;51.272;6.554;2022-12-20T08:52:35;10.30;99.90
4701;DHT22;8724;51.272;6.554;2022-12-20T08:55:04;10.30;99.90
4701;DHT22;8724;51.272;6.554;2022-12-20T08:57:34;10.30;99.90
4701;DHT22;8724;51.272;6.554;2022-12-20T09:00:03;10.30;99.90
4701;DHT22;8724;51.272;6.554;2022-12-20T09:02:33;10.30;99.90
4701;DHT22;8724;51.272;6.554;2022-12-20T09:05:04;10.30;99.90
4701;DHT22;8724;51.272;6.554;2022-12-20T09:07:33;10.30;99.90
4701;DHT22;8724;51.272;6.554;2022-12-20T09:10:01;10.30;99.90
4701;DHT22;8724;51.272;6.554;2022-12-20T09:12:29;10.30;99.90
4701;DHT22;8724;51.272;6.554;2022-12-20T09:14:59;10.30;99.90
4701;DHT22;8724;51.272;6.554;2022-12-20T09:17:27;10.40;99.90
4701;DHT22;8724;51.272;6.554;2022-12-20T09:19:55;10.40;99.90
4701;DHT22;8724;51.272;6.554;2022-12-20T09:22:24;10.40;99.90
4701;DHT22;8724;51.272;6.554;2022-12-20T09:24:52;10.40;99.90
4701;DHT22;8724;51.272;6.554;2022-12-20T09:27:21;10.40;99.90
4701;DHT22;8724;51.272;6.554;2022-12-20T09:29:49;10.40;99.90
4701;DHT22;8724;51.272;6.554;2022-12-20T09:32:19;10.40;99.90
4701;DHT22;8724;51.272;6.554;2022-12-20T09:34:47;10.40;99.90
4701;DHT22;8724;51.272;6.554;2022-12-20T09:37:15;10.40;99.90
4701;DHT22;8724;51.272;6.554;2022-12-20T09:39:43;10.40;99.90
4701;DHT22;8724;51.272;6.554;2022-12-20T09:42:13;10.50;99.90
4701;DHT22;8724;51.272;6.554;2022-12-20T09:44:42;10.50;99.90
4701;DHT22;8724;51.272;6.554;2022-12-20T09:47:14;10.50;99.90
4701;DHT22;8724;51.272;6.554;2022-12-20T09:49:49;10.50;99.90
4701;DHT22;8724;51.272;6.554;2022-12-20T09:52:32;10.50;99.90
4701;DHT22;8724;51.272;6.554;2022-12-20T09:55:12;10.50;99.90
4701;DHT22;8724;51.272;6.554;2022-12-20T09:57:51;10.50;99.90
4701;DHT22;8724;51.272;6.554;2022-12-20T10:00:22;10.50;99.90
4701;DHT22;8724;51.272;6.554;2022-12-20T10:02:50;10.50;99.90
4701;DHT22;8724;51.272;6.554;2022-12-20T10:05:40;10.50;99.90
4701;DHT22;8724;51.272;6.554;2022-12-20T10:08:16;10.60;99.90
4701;DHT22;8724;51.272;6.554;2022-12-20T10:10:54;10.50;99.90
4701;DHT22;8724;51.272;6.554;2022-12-20T10:13:37;10.50;99.90
4701;DHT22;8724;51.272;6.554;2022-12-20T10:16:23;10.50;99.90
4701;DHT22;8724;51.272;6.554;2022-12-20T10:19:04;10.60;99.90
4701;DHT22;8724;51.272;6.554;2022-12-20T10:21:45;10.60;99.90
4701;DHT22;8724;51.272;6.554;2022-12-20T10:24:17;10.60;99.90
4701;DHT22;8724;51.272;6.554;2022-12-20T10:26:48;10.60;99.90
4701;DHT22;8724;51.272;6.554;2022-12-20T10:29:18;10.60;99.90
4701;DHT22;8724;51.272;6.554;2022-12-20T10:31:49;10.60;99.90
4701;DHT22;8724;51.272;6.554;2022-12-20T10:34:18;10.60;99.90
4701;DHT22;8724;51.272;6.554;2022-12-20T10:36:48;10.60;99.90
4701;DHT22;8724;51.272;6.554;2022-12-20T10:39:39;10.60;99.90
4701;DHT22;8724;51.272;6.554;2022-12-20T10:42:24;10.70;99.90
4701;DHT22;8724;51.272;6.554;2022-12-20T10:44:53;10.70;99.90
4701;DHT22;8724;51.272;6.554;2022-12-20T10:47:30;10.70;99.90
4701;DHT22;8724;51.272;6.554;2022-12-20T10:50:14;10.70;99.90
4701;DHT22;8724;51.272;6.554;2022-12-20T10:52:45;10.70;99.90
4701;DHT22;8724;51.272;6.554;2022-12-20T10:55:33;10.70;99.90
4701;DHT22;8724;51.272;6.554;2022-12-20T10:58:03;10.70;99.90
4701;DHT22;8724;51.272;6.554;2022-12-20T11:00:33;10.70;99.90
4701;DHT22;8724;51.272;6.554;2022-12-20T11:03:09;10.70;99.90
4701;DHT22;8724;51.272;6.554;2022-12-20T11:05:39;10.70;99.90
4701;DHT22;8724;51.272;6.554;2022-12-20T11:08:14;10.80;99.90
4701;DHT22;8724;51.272;6.554;2022-12-20T11:11:14;10.90;99.90
4701;DHT22;8724;51.272;6.554;2022-12-20T11:13:44;10.80;99.90
4701;DHT22;8724;51.272;6.554;2022-12-20T11:16:28;10.80;99.90
4701;DHT22;8724;51.272;6.554;2022-12-20T11:22:31;10.80;99.90
4701;DHT22;8724;51.272;6.554;2022-12-20T11:25:17;10.80;99.90
4701;DHT22;8724;51.272;6.554;2022-12-20T11:27:56;10.80;99.90
4701;DHT22;8724;51.272;6.554;2022-12-20T11:30:33;10.80;99.90
4701;DHT22;8724;51.272;6.554;2022-12-20T11:33:15;10.90;99.90
4701;DHT22;8724;51.272;6.554;2022-12-20T11:35:51;10.50;99.90
4701;DHT22;8724;51.272;6.554;2022-12-20T11:38:33;10.90;99.90
4701;DHT22;8724;51.272;6.554;2022-12-20T11:41:14;10.90;99.90
4701;DHT22;8724;51.272;6.554;2022-12-20T11:44:04;10.90;99.90
4701;DHT22;8724;51.272;6.554;2022-12-20T11:47:19;10.90;99.90
4701;DHT22;8724;51.272;6.554;2022-12-20T11:50:10;10.90;99.90
4701;DHT22;8724;51.272;6.554;2022-12-20T11:52:45;11.00;99.90
4701;DHT22;8724;51.272;6.554;2022-12-20T11:55:17;11.00;99.90
4701;DHT22;8724;51.272;6.554;2022-12-20T11:57:56;11.00;99.90
4701;DHT22;8724;51.272;6.554;2022-12-20T12:00:51;11.00;99.90
4701;DHT22;8724;51.272;6.554;2022-12-20T12:03:25;11.00;99.90
4701;DHT22;8724;51.272;6.554;2022-12-20T12:05:58;11.00;99.90
4701;DHT22;8724;51.272;6.554;2022-12-20T12:08:37;11.00;99.90
4701;DHT22;8724;51.272;6.554;2022-12-20T12:11:13;11.00;99.90
4701;DHT22;8724;51.272;6.554;2022-12-20T12:14:03;11.00;99.90
4701;DHT22;8724;51.272;6.554;2022-12-20T12:16:35;11.20;99.90
4701;DHT22;8724;51.272;6.554;2022-12-20T12:19:08;11.20;99.90
4701;DHT22;8724;51.272;6.554;2022-12-20T12:21:39;11.10;99.90
4701;DHT22;8724;51.272;6.554;2022-12-20T12:24:18;11.10;99.90
4701;DHT22;8724;51.272;6.554;2022-12-20T12:26:49;11.10;99.90
4701;DHT22;8724;51.272;6.554;2022-12-20T12:29:19;11.10;99.90
4701;DHT22;8724;51.272;6.554;2022-12-20T12:31:52;11.20;99.90
4701;DHT22;8724;51.272;6.554;2022-12-20T12:34:32;11.40;99.90
4701;DHT22;8724;51.272;6.554;2022-12-20T12:37:33;11.20;99.90
4701;DHT22;8724;51.272;6.554;2022-12-20T12:43:44;11.30;99.90
4701;DHT22;8724;51.272;6.554;2022-12-20T12:46:17;11.30;99.90
4701;DHT22;8724;51.272;6.554;2022-12-20T12:48:51;11.30;99.90
4701;DHT22;8724;51.272;6.554;2022-12-20T12:51:25;11.40;99.90
4701;DHT22;8724;51.272;6.554;2022-12-20T12:54:03;11.40;99.90
4701;DHT22;8724;51.272;6.554;2022-12-20T12:56:40;11.40;99.90
4701;DHT22;8724;51.272;6.554;2022-12-20T12:59:21;11.40;99.90
4701;DHT22;8724;51.272;6.554;2022-12-20T13:01:52;11.40;99.90
4701;DHT22;8724;51.272;6.554;2022-12-20T13:04:27;11.40;99.90
4701;DHT22;8724;51.272;6.554;2022-12-20T13:07:01;11.40;99.90
4701;DHT22;8724;51.272;6.554;2022-12-20T13:09:48;11.40;99.90
4701;DHT22;8724;51.272;6.554;2022-12-20T13:12:56;11.40;99.90
4701;DHT22;8724;51.272;6.554;2022-12-20T13:19:14;11.30;99.90
4701;DHT22;8724;51.272;6.554;2022-12-20T13:21:43;11.40;99.90
4701;DHT22;8724;51.272;6.554;2022-12-20T13:24:52;11.40;99.90
4701;DHT22;8724;51.272;6.554;2022-12-20T13:27:29;11.40;99.90
4701;DHT22;8724;51.272;6.554;2022-12-20T13:33:23;11.40;99.90
4701;DHT22;8724;51.272;6.554;2022-12-20T13:36:34;11.40;99.90
4701;DHT22;8724;51.272;6.554;2022-12-20T13:39:31;11.40;99.90
4701;DHT22;8724;51.272;6.554;2022-12-20T13:42:14;11.40;99.90
4701;DHT22;8724;51.272;6.554;2022-12-20T13:44:45;11.40;99.90
4701;DHT22;8724;51.272;6.554;2022-12-20T13:47:35;11.40;99.90
4701;DHT22;8724;51.272;6.554;2022-12-20T13:50:37;11.40;99.90
4701;DHT22;8724;51.272;6.554;2022-12-20T13:53:15;11.70;99.90
4701;DHT22;8724;51.272;6.554;2022-12-20T13:55:44;11.40;99.90
4701;DHT22;8724;51.272;6.554;2022-12-20T13:58:16;11.40;99.90
4701;DHT22;8724;51.272;6.554;2022-12-20T14:00:46;11.40;99.90
4701;DHT22;8724;51.272;6.554;2022-12-20T14:03:20;11.40;99.90
4701;DHT22;8724;51.272;6.554;2022-12-20T14:05:55;11.40;99.90
4701;DHT22;8724;51.272;6.554;2022-12-20T14:08:27;11.40;99.90
4701;DHT22;8724;51.272;6.554;2022-12-20T14:11:08;11.40;99.90
4701;DHT22;8724;51.272;6.554;2022-12-20T14:13:36;11.40;99.90
4701;DHT22;8724;51.272;6.554;2022-12-20T14:16:12;11.40;99.90
4701;DHT22;8724;51.272;6.554;2022-12-20T14:18:47;11.30;99.90
4701;DHT22;8724;51.272;6.554;2022-12-20T14:21:16;11.40;99.90
4701;DHT22;8724;51.272;6.554;2022-12-20T14:23:47;11.40;99.90
4701;DHT22;8724;51.272;6.554;2022-12-20T14:26:20;11.40;99.90
4701;DHT22;8724;51.272;6.554;2022-12-20T14:28:50;11.50;99.90
4701;DHT22;8724;51.272;6.554;2022-12-20T14:31:24;11.60;99.90
4701;DHT22;8724;51.272;6.554;2022-12-20T14:34:01;11.50;99.90
4701;DHT22;8724;51.272;6.554;2022-12-20T14:36:31;11.50;99.90
4701;DHT22;8724;51.272;6.554;2022-12-20T14:39:21;11.60;99.90
4701;DHT22;8724;51.272;6.554;2022-12-20T14:41:54;11.50;99.90
4701;DHT22;8724;51.272;6.554;2022-12-20T14:44:24;11.50;99.90
4701;DHT22;8724;51.272;6.554;2022-12-20T14:46:54;11.50;99.90
4701;DHT22;8724;51.272;6.554;2022-12-20T14:49:25;11.50;99.90
4701;DHT22;8724;51.272;6.554;2022-12-20T14:52:11;11.50;99.90
4701;DHT22;8724;51.272;6.554;2022-12-20T14:54:45;11.50;99.90
4701;DHT22;8724;51.272;6.554;2022-12-20T14:57:42;11.50;99.90
4701;DHT22;8724;51.272;6.554;2022-12-20T15:00:14;11.60;99.90
4701;DHT22;8724;51.272;6.554;2022-12-20T15:02:50;11.50;99.90
4701;DHT22;8724;51.272;6.554;2022-12-20T15:05:50;11.50;99.90
4701;DHT22;8724;51.272;6.554;2022-12-20T15:08:21;11.60;99.90
4701;DHT22;8724;51.272;6.554;2022-12-20T15:10:57;11.70;99.90
4701;DHT22;8724;51.272;6.554;2022-12-20T15:13:31;11.50;99.90
4701;DHT22;8724;51.272;6.554;2022-12-20T15:16:01;11.50;99.90
4701;DHT22;8724;51.272;6.554;2022-12-20T15:18:31;11.60;99.90
4701;DHT22;8724;51.272;6.554;2022-12-20T15:21:02;11.80;99.90
4701;DHT22;8724;51.272;6.554;2022-12-20T15:23:31;11.50;99.90
4701;DHT22;8724;51.272;6.554;2022-12-20T15:26:02;11.60;99.90
4701;DHT22;8724;51.272;6.554;2022-12-20T15:28:30;11.60;99.90
4701;DHT22;8724;51.272;6.554;2022-12-20T15:30:58;11.60;99.90
4701;DHT22;8724;51.272;6.554;2022-12-20T15:33:30;11.60;99.90
4701;DHT22;8724;51.272;6.554;2022-12-20T15:35:59;11.60;99.90
4701;DHT22;8724;51.272;6.554;2022-12-20T15:38:27;11.60;99.90
4701;DHT22;8724;51.272;6.554;2022-12-20T15:41:20;11.60;99.90
4701;DHT22;8724;51.272;6.554;2022-12-20T15:43:51;11.60;99.90
4701;DHT22;8724;51.272;6.554;2022-12-20T15:46:20;11.80;99.90
4701;DHT22;8724;51.272;6.554;2022-12-20T15:48:49;11.60;99.90
4701;DHT22;8724;51.272;6.554;2022-12-20T15:51:23;11.60;99.90
4701;DHT22;8724;51.272;6.554;2022-12-20T15:53:52;11.60;99.90
4701;DHT22;8724;51.272;6.554;2022-12-20T15:56:23;11.60;99.90
4701;DHT22;8724;51.272;6.554;2022-12-20T15:58:51;11.60;99.90
4701;DHT22;8724;51.272;6.554;2022-12-20T16:01:22;11.70;99.90
4701;DHT22;8724;51.272;6.554;2022-12-20T16:03:52;11.60;99.90
4701;DHT22;8724;51.272;6.554;2022-12-20T16:06:20;11.80;99.90
4701;DHT22;8724;51.272;6.554;2022-12-20T16:08:50;11.60;99.90
4701;DHT22;8724;51.272;6.554;2022-12-20T16:11:20;11.60;99.90
4701;DHT22;8724;51.272;6.554;2022-12-20T16:13:50;11.60;99.90
4701;DHT22;8724;51.272;6.554;2022-12-20T16:16:20;11.60;99.90
4701;DHT22;8724;51.272;6.554;2022-12-20T16:18:49;11.60;99.90
4701;DHT22;8724;51.272;6.554;2022-12-20T16:21:19;11.60;99.90
4701;DHT22;8724;51.272;6.554;2022-12-20T16:23:48;11.60;99.90
4701;DHT22;8724;51.272;6.554;2022-12-20T16:26:18;11.60;99.90
4701;DHT22;8724;51.272;6.554;2022-12-20T16:28:48;11.50;99.90
4701;DHT22;8724;51.272;6.554;2022-12-20T16:31:22;11.60;99.90
4701;DHT22;8724;51.272;6.554;2022-12-20T16:33:52;11.60;99.90
4701;DHT22;8724;51.272;6.554;2022-12-20T16:36:21;11.60;99.90
4701;DHT22;8724;51.272;6.554;2022-12-20T16:38:50;11.60;99.90
4701;DHT22;8724;51.272;6.554;2022-12-20T16:41:22;11.60;99.90
4701;DHT22;8724;51.272;6.554;2022-12-20T16:43:53;11.60;99.90
4701;DHT22;8724;51.272;6.554;2022-12-20T16:46:26;11.60;99.90
4701;DHT22;8724;51.272;6.554;2022-12-20T16:48:54;11.60;99.90
4701;DHT22;8724;51.272;6.554;2022-12-20T16:51:25;11.60;99.90
4701;DHT22;8724;51.272;6.554;2022-12-20T16:53:56;11.60;99.90
4701;DHT22;8724;51.272;6.554;2022-12-20T16:56:45;11.80;99.90
4701;DHT22;8724;51.272;6.554;2022-12-20T16:59:14;11.60;99.90
4701;DHT22;8724;51.272;6.554;2022-12-20T17:01:50;11.60;99.90